sensor_id;sensor_type;location;lat;lon;timestamp;temperature;humidity
8527;DHT22;4301;48.362;8.478;2023-06-14T00:00:17;10.40;1.00
8527;DHT22;4301;48.362;8.478;2023-06-14T00:02:45;10.40;1.00
8527;DHT22;4301;48.362;8.478;2023-06-14T00:05:12;10.40;1.00
8527;DHT22;4301;48.362;8.478;2023-06-14T00:07:42;10.30;1.00
8527;DHT22;4301;48.362;8.478;2023-06-14T00:10:09;10.30;99.90
8527;DHT22;4301;48.362;8.478;2023-06-14T00:12:38;10.20;99.90
8527;DHT22;4301;48.362;8.478;2023-06-14T00:15:06;10.20;1.00
8527;DHT22;4301;48.362;8.478;2023-06-14T00:17:35;10.20;1.00
8527;DHT22;4301;48.362;8.478;2023-06-14T00:20:03;10.00;1.00
8527;DHT22;4301;48.362;8.478;2023-06-14T00:22:32;10.00;99.90
8527;DHT22;4301;48.362;8.478;2023-06-14T00:25:01;10.00;99.90
8527;DHT22;4301;48.362;8.478;2023-06-14T00:27:28;10.00;99.90
8527;DHT22;4301;48.362;8.478;2023-06-14T00:29:54;9.90;91.30
8527;DHT22;4301;48.362;8.478;2023-06-14T00:32:22;9.90;99.90
8527;DHT22;4301;48.362;8.478;2023-06-14T00:34:51;9.90;1.00
8527;DHT22;4301;48.362;8.478;2023-06-14T00:37:18;9.80;1.00
8527;DHT22;4301;48.362;8.478;2023-06-14T00:39:45;9.80;1.00
8527;DHT22;4301;48.362;8.478;2023-06-14T00:42:23;9.80;99.90
8527;DHT22;4301;48.362;8.478;2023-06-14T00:44:50;9.70;1.00
8527;DHT22;4301;48.362;8.478;2023-06-14T00:47:17;9.80;99.90
8527;DHT22;4301;48.362;8.478;2023-06-14T00:49:45;9.70;1.00
8527;DHT22;4301;48.362;8.478;2023-06-14T00:52:12;9.60;1.00
8527;DHT22;4301;48.362;8.478;2023-06-14T00:54:40;9.70;1.00
8527;DHT22;4301;48.362;8.478;2023-06-14T00:57:07;9.60;99.90
8527;DHT22;4301;48.362;8.478;2023-06-14T00:59:40;9.60;99.90
8527;DHT22;4301;48.362;8.478;2023-06-14T01:02:08;9.50;1.00
8527;DHT22;4301;48.362;8.478;2023-06-14T01:04:36;9.40;1.00
8527;DHT22;4301;48.362;8.478;2023-06-14T01:07:09;9.40;1.00
8527;DHT22;4301;48.362;8.478;2023-06-14T01:09:48;9.30;99.90
8527;DHT22;4301;48.362;8.478;2023-06-14T01:12:21;9.30;1.00
8527;DHT22;4301;48.362;8.478;2023-06-14T01:14:54;9.20;99.90
8527;DHT22;4301;48.362;8.478;2023-06-14T01:17:22;9.10;99.90
8527;DHT22;4301;48.362;8.478;2023-06-14T01:19:52;9.10;99.90
8527;DHT22;4301;48.362;8.478;2023-06-14T01:22:25;9.10;67.10
8527;DHT22;4301;48.362;8.478;2023-06-14T01:24:53;9.00;1.00
8527;DHT22;4301;48.362;8.478;2023-06-14T01:27:22;9.00;99.90
8527;DHT22;4301;48.362;8.478;2023-06-14T01:29:55;9.00;1.00
8527;DHT22;4301;48.362;8.478;2023-06-14T01:32:23;9.00;1.00
8527;DHT22;4301;48.362;8.478;2023-06-14T01:34:51;8.90;94.20
8527;DHT22;4301;48.362;8.478;2023-06-14T01:37:19;8.90;99.90
8527;DHT22;4301;48.362;8.478;2023-06-14T01:39:47;8.90;1.00
8527;DHT22;4301;48.362;8.478;2023-06-14T01:42:17;8.90;1.00
8527;DHT22;4301;48.362;8.478;2023-06-14T01:44:45;8.80;1.00
8527;DHT22;4301;48.362;8.478;2023-06-14T01:47:14;8.80;1.00
8527;DHT22;4301;48.362;8.478;2023-06-14T01:49:41;8.70;1.00
8527;DHT22;4301;48.362;8.478;2023-06-14T01:52:08;8.60;99.90
8527;DHT22;4301;48.362;8.478;2023-06-14T01:54:35;8.50;99.90
8527;DHT22;4301;48.362;8.478;2023-06-14T01:57:07;8.40;99.90
8527;DHT22;4301;48.362;8.478;2023-06-14T01:59:35;8.40;99.90
8527;DHT22;4301;48.362;8.478;2023-06-14T02:02:03;8.40;99.90
8527;DHT22;4301;48.362;8.478;2023-06-14T02:04:30;8.40;99.90
8527;DHT22;4301;48.362;8.478;2023-06-14T02:06:57;8.40;99.90
8527;DHT22;4301;48.362;8.478;2023-06-14T02:09:24;8.30;42.90
8527;DHT22;4301;48.362;8.478;2023-06-14T02:11:51;8.20;1.00
8527;DHT22;4301;48.362;8.478;2023-06-14T02:14:18;8.30;1.00
8527;DHT22;4301;48.362;8.478;2023-06-14T02:16:46;8.20;1.00
8527;DHT22;4301;48.362;8.478;2023-06-14T02:19:14;8.20;99.90
8527;DHT22;4301;48.362;8.478;2023-06-14T02:21:42;8.20;99.90
8527;DHT22;4301;48.362;8.478;2023-06-14T02:24:08;8.10;99.90
8527;DHT22;4301;48.362;8.478;2023-06-14T02:26:35;8.10;1.00
8527;DHT22;4301;48.362;8.478;2023-06-14T02:29:03;8.00;1.00
8527;DHT22;4301;48.362;8.478;2023-06-14T02:31:31;7.90;1.00
8527;DHT22;4301;48.362;8.478;2023-06-14T02:33:59;7.90;1.00
8527;DHT22;4301;48.362;8.478;2023-06-14T02:36:26;8.00;1.00
8527;DHT22;4301;48.362;8.478;2023-06-14T02:38:55;7.90;1.00
8527;DHT22;4301;48.362;8.478;2023-06-14T02:41:23;8.00;1.00
8527;DHT22;4301;48.362;8.478;2023-06-14T02:43:50;8.00;1.00
8527;DHT22;4301;48.362;8.478;2023-06-14T02:46:16;7.90;1.00
8527;DHT22;4301;48.362;8.478;2023-06-14T02:48:43;7.90;1.00
8527;DHT22;4301;48.362;8.478;2023-06-14T02:51:12;7.90;1.00
8527;DHT22;4301;48.362;8.478;2023-06-14T02:53:39;7.90;1.00
8527;DHT22;4301;48.362;8.478;2023-06-14T02:56:06;7.80;1.00
8527;DHT22;4301;48.362;8.478;2023-06-14T02:58:33;7.80;1.00
8527;DHT22;4301;48.362;8.478;2023-06-14T03:00:59;7.80;1.00
8527;DHT22;4301;48.362;8.478;2023-06-14T03:03:29;7.80;1.00
8527;DHT22;4301;48.362;8.478;2023-06-14T03:05:55;7.70;1.00
8527;DHT22;4301;48.362;8.478;2023-06-14T03:08:24;7.60;1.00
8527;DHT22;4301;48.362;8.478;2023-06-14T03:10:53;7.60;1.00
8527;DHT22;4301;48.362;8.478;2023-06-14T03:13:21;7.60;1.00
8527;DHT22;4301;48.362;8.478;2023-06-14T03:15:48;7.60;1.00
8527;DHT22;4301;48.362;8.478;2023-06-14T03:18:16;7.50;1.00
8527;DHT22;4301;48.362;8.478;2023-06-14T03:20:44;7.50;1.00
8527;DHT22;4301;48.362;8.478;2023-06-14T03:23:12;7.50;1.00
8527;DHT22;4301;48.362;8.478;2023-06-14T03:25:40;7.50;1.00
8527;DHT22;4301;48.362;8.478;2023-06-14T03:28:08;7.40;1.00
8527;DHT22;4301;48.362;8.478;2023-06-14T03:30:35;7.40;1.00
8527;DHT22;4301;48.362;8.478;2023-06-14T03:33:02;7.40;1.00
8527;DHT22;4301;48.362;8.478;2023-06-14T03:35:30;7.40;1.00
8527;DHT22;4301;48.362;8.478;2023-06-14T03:37:57;7.40;1.00
8527;DHT22;4301;48.362;8.478;2023-06-14T03:40:24;7.40;1.00
8527;DHT22;4301;48.362;8.478;2023-06-14T03:42:54;7.40;1.00
8527;DHT22;4301;48.362;8.478;2023-06-14T03:45:21;7.40;1.00
8527;DHT22;4301;48.362;8.478;2023-06-14T03:47:48;7.30;1.00
8527;DHT22;4301;48.362;8.478;2023-06-14T03:50:16;7.40;1.00
8527;DHT22;4301;48.362;8.478;2023-06-14T03:52:43;7.40;1.00
8527;DHT22;4301;48.362;8.478;2023-06-14T03:55:10;7.40;1.00
8527;DHT22;4301;48.362;8.478;2023-06-14T03:57:38;7.40;1.00
8527;DHT22;4301;48.362;8.478;2023-06-14T04:00:09;7.40;1.00
8527;DHT22;4301;48.362;8.478;2023-06-14T04:02:37;7.50;1.00
8527;DHT22;4301;48.362;8.478;2023-06-14T04:05:04;7.50;1.00
8527;DHT22;4301;48.362;8.478;2023-06-14T04:07:34;7.50;1.00
8527;DHT22;4301;48.362;8.478;2023-06-14T04:10:06;7.50;1.00
8527;DHT22;4301;48.362;8.478;2023-06-14T04:12:33;7.40;1.00
8527;DHT22;4301;48.362;8.478;2023-06-14T04:15:00;7.40;1.00
8527;DHT22;4301;48.362;8.478;2023-06-14T04:17:29;7.50;1.00
8527;DHT22;4301;48.362;8.478;2023-06-14T04:19:58;7.50;1.00
8527;DHT22;4301;48.362;8.478;2023-06-14T04:22:25;7.40;1.00
8527;DHT22;4301;48.362;8.478;2023-06-14T04:24:54;7.40;1.00
8527;DHT22;4301;48.362;8.478;2023-06-14T04:27:21;7.50;1.00
8527;DHT22;4301;48.362;8.478;2023-06-14T04:29:51;7.60;1.00
8527;DHT22;4301;48.362;8.478;2023-06-14T04:32:23;7.70;1.00
8527;DHT22;4301;48.362;8.478;2023-06-14T04:34:54;7.70;1.00
8527;DHT22;4301;48.362;8.478;2023-06-14T04:37:21;7.70;1.00
8527;DHT22;4301;48.362;8.478;2023-06-14T04:39:48;7.80;1.00
8527;DHT22;4301;48.362;8.478;2023-06-14T04:42:15;7.90;1.00
8527;DHT22;4301;48.362;8.478;2023-06-14T04:44:45;7.90;1.00
8527;DHT22;4301;48.362;8.478;2023-06-14T04:47:14;8.00;1.00
8527;DHT22;4301;48.362;8.478;2023-06-14T04:49:41;8.00;1.00
8527;DHT22;4301;48.362;8.478;2023-06-14T04:52:10;8.10;1.00
8527;DHT22;4301;48.362;8.478;2023-06-14T04:54:38;8.10;1.00
8527;DHT22;4301;48.362;8.478;2023-06-14T04:57:07;8.30;1.00
8527;DHT22;4301;48.362;8.478;2023-06-14T04:59:34;8.40;1.00
8527;DHT22;4301;48.362;8.478;2023-06-14T05:02:02;8.50;1.00
8527;DHT22;4301;48.362;8.478;2023-06-14T05:04:29;8.60;1.00
8527;DHT22;4301;48.362;8.478;2023-06-14T05:06:56;8.60;1.00
8527;DHT22;4301;48.362;8.478;2023-06-14T05:09:24;8.70;1.00
8527;DHT22;4301;48.362;8.478;2023-06-14T05:11:51;8.80;1.00
8527;DHT22;4301;48.362;8.478;2023-06-14T05:14:18;8.90;1.00
8527;DHT22;4301;48.362;8.478;2023-06-14T05:16:45;8.90;1.00
8527;DHT22;4301;48.362;8.478;2023-06-14T05:19:14;9.00;1.00
8527;DHT22;4301;48.362;8.478;2023-06-14T05:21:43;9.10;1.00
8527;DHT22;4301;48.362;8.478;2023-06-14T05:24:11;9.20;1.00
8527;DHT22;4301;48.362;8.478;2023-06-14T05:26:39;9.30;1.00
8527;DHT22;4301;48.362;8.478;2023-06-14T05:29:06;9.50;1.00
8527;DHT22;4301;48.362;8.478;2023-06-14T05:31:33;9.60;1.00
8527;DHT22;4301;48.362;8.478;2023-06-14T05:34:00;9.70;99.90
8527;DHT22;4301;48.362;8.478;2023-06-14T05:36:27;9.70;99.90
8527;DHT22;4301;48.362;8.478;2023-06-14T05:38:54;9.90;99.90
8527;DHT22;4301;48.362;8.478;2023-06-14T05:41:24;10.00;1.00
8527;DHT22;4301;48.362;8.478;2023-06-14T05:43:53;10.10;99.90
8527;DHT22;4301;48.362;8.478;2023-06-14T05:46:21;10.20;99.90
8527;DHT22;4301;48.362;8.478;2023-06-14T05:48:51;10.40;99.90
8527;DHT22;4301;48.362;8.478;2023-06-14T05:51:18;10.40;99.90
8527;DHT22;4301;48.362;8.478;2023-06-14T05:53:45;10.60;99.90
8527;DHT22;4301;48.362;8.478;2023-06-14T05:56:12;10.70;1.00
8527;DHT22;4301;48.362;8.478;2023-06-14T05:58:39;10.90;1.00
8527;DHT22;4301;48.362;8.478;2023-06-14T06:01:08;11.00;1.00
8527;DHT22;4301;48.362;8.478;2023-06-14T06:03:35;11.20;1.00
8527;DHT22;4301;48.362;8.478;2023-06-14T06:06:02;11.30;1.00
8527;DHT22;4301;48.362;8.478;2023-06-14T06:08:29;11.50;99.90
8527;DHT22;4301;48.362;8.478;2023-06-14T06:10:57;11.70;99.90
8527;DHT22;4301;48.362;8.478;2023-06-14T06:13:24;11.80;17.10
8527;DHT22;4301;48.362;8.478;2023-06-14T06:15:50;12.00;99.90
8527;DHT22;4301;48.362;8.478;2023-06-14T06:18:19;12.20;99.90
8527;DHT22;4301;48.362;8.478;2023-06-14T06:20:46;12.40;99.90
8527;DHT22;4301;48.362;8.478;2023-06-14T06:23:13;12.60;99.90
8527;DHT22;4301;48.362;8.478;2023-06-14T06:25:40;12.80;99.90
8527;DHT22;4301;48.362;8.478;2023-06-14T06:28:07;13.00;99.90
8527;DHT22;4301;48.362;8.478;2023-06-14T06:30:34;13.20;99.90
8527;DHT22;4301;48.362;8.478;2023-06-14T06:33:02;13.30;1.00
8527;DHT22;4301;48.362;8.478;2023-06-14T06:35:31;13.60;1.00
8527;DHT22;4301;48.362;8.478;2023-06-14T06:37:59;13.90;99.90
8527;DHT22;4301;48.362;8.478;2023-06-14T06:40:26;14.40;99.90
8527;DHT22;4301;48.362;8.478;2023-06-14T06:42:53;14.90;1.00
8527;DHT22;4301;48.362;8.478;2023-06-14T06:45:20;15.20;1.00
8527;DHT22;4301;48.362;8.478;2023-06-14T06:47:48;15.50;99.90
8527;DHT22;4301;48.362;8.478;2023-06-14T06:50:15;15.80;1.00
8527;DHT22;4301;48.362;8.478;2023-06-14T06:52:44;16.10;1.00
8527;DHT22;4301;48.362;8.478;2023-06-14T06:55:11;16.30;1.00
8527;DHT22;4301;48.362;8.478;2023-06-14T06:57:38;16.60;1.00
8527;DHT22;4301;48.362;8.478;2023-06-14T07:00:06;16.90;99.90
8527;DHT22;4301;48.362;8.478;2023-06-14T07:02:35;17.10;1.00
8527;DHT22;4301;48.362;8.478;2023-06-14T07:05:02;17.30;99.90
8527;DHT22;4301;48.362;8.478;2023-06-14T07:07:29;17.60;99.90
8527;DHT22;4301;48.362;8.478;2023-06-14T07:09:58;17.80;99.90
8527;DHT22;4301;48.362;8.478;2023-06-14T07:12:25;18.00;99.90
8527;DHT22;4301;48.362;8.478;2023-06-14T07:14:52;18.20;99.90
8527;DHT22;4301;48.362;8.478;2023-06-14T07:17:19;18.40;99.90
8527;DHT22;4301;48.362;8.478;2023-06-14T07:19:46;18.60;99.90
8527;DHT22;4301;48.362;8.478;2023-06-14T07:22:13;18.70;99.90
8527;DHT22;4301;48.362;8.478;2023-06-14T07:24:40;18.90;99.90
8527;DHT22;4301;48.362;8.478;2023-06-14T07:27:09;19.10;99.90
8527;DHT22;4301;48.362;8.478;2023-06-14T07:29:38;19.10;99.90
8527;DHT22;4301;48.362;8.478;2023-06-14T07:32:06;19.10;99.90
8527;DHT22;4301;48.362;8.478;2023-06-14T07:34:33;19.30;99.90
8527;DHT22;4301;48.362;8.478;2023-06-14T07:37:00;19.50;99.90
8527;DHT22;4301;48.362;8.478;2023-06-14T07:39:27;19.60;99.90
8527;DHT22;4301;48.362;8.478;2023-06-14T07:41:54;19.80;99.90
8527;DHT22;4301;48.362;8.478;2023-06-14T07:44:22;20.10;99.90
8527;DHT22;4301;48.362;8.478;2023-06-14T07:46:50;20.20;90.80
8527;DHT22;4301;48.362;8.478;2023-06-14T07:49:16;20.40;67.80
8527;DHT22;4301;48.362;8.478;2023-06-14T07:51:43;20.10;55.00
8527;DHT22;4301;48.362;8.478;2023-06-14T07:54:12;20.10;49.80
8527;DHT22;4301;48.362;8.478;2023-06-14T07:56:39;20.30;40.30
8527;DHT22;4301;48.362;8.478;2023-06-14T07:59:06;20.70;31.70
8527;DHT22;4301;48.362;8.478;2023-06-14T08:01:34;20.80;4.80
8527;DHT22;4301;48.362;8.478;2023-06-14T08:04:01;21.00;1.00
8527;DHT22;4301;48.362;8.478;2023-06-14T08:06:28;21.20;1.00
8527;DHT22;4301;48.362;8.478;2023-06-14T08:08:56;21.40;1.00
8527;DHT22;4301;48.362;8.478;2023-06-14T08:11:23;21.40;1.00
8527;DHT22;4301;48.362;8.478;2023-06-14T08:13:50;21.60;1.00
8527;DHT22;4301;48.362;8.478;2023-06-14T08:16:17;21.70;1.00
8527;DHT22;4301;48.362;8.478;2023-06-14T08:18:46;21.80;1.00
8527;DHT22;4301;48.362;8.478;2023-06-14T08:21:13;21.90;1.00
8527;DHT22;4301;48.362;8.478;2023-06-14T08:23:40;22.20;1.00
8527;DHT22;4301;48.362;8.478;2023-06-14T08:26:08;22.30;1.00
8527;DHT22;4301;48.362;8.478;2023-06-14T08:28:35;22.20;1.00
8527;DHT22;4301;48.362;8.478;2023-06-14T08:31:02;21.80;1.00
8527;DHT22;4301;48.362;8.478;2023-06-14T08:33:29;22.20;1.00
8527;DHT22;4301;48.362;8.478;2023-06-14T08:35:59;22.40;1.00
8527;DHT22;4301;48.362;8.478;2023-06-14T08:38:26;22.50;1.00
8527;DHT22;4301;48.362;8.478;2023-06-14T08:40:57;22.70;1.00
8527;DHT22;4301;48.362;8.478;2023-06-14T08:43:24;23.00;1.00
8527;DHT22;4301;48.362;8.478;2023-06-14T08:45:56;23.00;1.00
8527;DHT22;4301;48.362;8.478;2023-06-14T08:48:26;23.20;1.00
8527;DHT22;4301;48.362;8.478;2023-06-14T08:50:54;23.40;1.00
8527;DHT22;4301;48.362;8.478;2023-06-14T08:53:29;23.40;1.00
8527;DHT22;4301;48.362;8.478;2023-06-14T08:55:57;23.40;1.00
8527;DHT22;4301;48.362;8.478;2023-06-14T08:58:27;23.40;1.00
8527;DHT22;4301;48.362;8.478;2023-06-14T09:00:55;23.40;1.00
8527;DHT22;4301;48.362;8.478;2023-06-14T09:03:23;23.50;1.00
8527;DHT22;4301;48.362;8.478;2023-06-14T09:05:56;23.10;1.00
8527;DHT22;4301;48.362;8.478;2023-06-14T09:08:25;23.00;1.00
8527;DHT22;4301;48.362;8.478;2023-06-14T09:10:53;22.90;1.00
8527;DHT22;4301;48.362;8.478;2023-06-14T09:13:20;22.90;1.00
8527;DHT22;4301;48.362;8.478;2023-06-14T09:15:47;23.40;1.00
8527;DHT22;4301;48.362;8.478;2023-06-14T09:18:14;23.20;1.00
8527;DHT22;4301;48.362;8.478;2023-06-14T09:20:42;23.30;1.00
8527;DHT22;4301;48.362;8.478;2023-06-14T09:23:10;23.00;1.00
8527;DHT22;4301;48.362;8.478;2023-06-14T09:25:46;22.70;1.00
8527;DHT22;4301;48.362;8.478;2023-06-14T09:28:14;23.00;1.00
8527;DHT22;4301;48.362;8.478;2023-06-14T09:30:41;22.90;1.00
8527;DHT22;4301;48.362;8.478;2023-06-14T09:33:08;23.40;1.00
8527;DHT22;4301;48.362;8.478;2023-06-14T09:35:35;24.00;1.00
8527;DHT22;4301;48.362;8.478;2023-06-14T09:38:02;24.30;1.00
8527;DHT22;4301;48.362;8.478;2023-06-14T09:40:34;23.50;1.00
8527;DHT22;4301;48.362;8.478;2023-06-14T09:43:05;23.90;1.00
8527;DHT22;4301;48.362;8.478;2023-06-14T09:45:35;24.60;1.00
8527;DHT22;4301;48.362;8.478;2023-06-14T09:48:02;24.80;1.00
8527;DHT22;4301;48.362;8.478;2023-06-14T09:50:30;24.90;1.00
8527;DHT22;4301;48.362;8.478;2023-06-14T09:53:02;25.00;1.00
8527;DHT22;4301;48.362;8.478;2023-06-14T09:55:31;25.20;1.00
8527;DHT22;4301;48.362;8.478;2023-06-14T09:58:04;25.10;1.00
8527;DHT22;4301;48.362;8.478;2023-06-14T10:00:31;24.70;1.00
8527;DHT22;4301;48.362;8.478;2023-06-14T10:03:03;24.80;1.00
8527;DHT22;4301;48.362;8.478;2023-06-14T10:05:31;24.20;1.00
8527;DHT22;4301;48.362;8.478;2023-06-14T10:08:00;24.40;1.00
8527;DHT22;4301;48.362;8.478;2023-06-14T10:10:30;24.60;1.00
8527;DHT22;4301;48.362;8.478;2023-06-14T10:12:57;24.70;1.00
8527;DHT22;4301;48.362;8.478;2023-06-14T10:15:32;24.90;1.00
8527;DHT22;4301;48.362;8.478;2023-06-14T10:18:07;24.60;1.00
8527;DHT22;4301;48.362;8.478;2023-06-14T10:20:45;24.50;1.00
8527;DHT22;4301;48.362;8.478;2023-06-14T10:23:18;24.90;1.00
8527;DHT22;4301;48.362;8.478;2023-06-14T10:25:50;25.00;1.00
8527;DHT22;4301;48.362;8.478;2023-06-14T10:28:18;24.30;1.00
8527;DHT22;4301;48.362;8.478;2023-06-14T10:31:04;24.60;1.00
8527;DHT22;4301;48.362;8.478;2023-06-14T10:33:32;24.70;1.00
8527;DHT22;4301;48.362;8.478;2023-06-14T10:36:11;24.50;1.00
8527;DHT22;4301;48.362;8.478;2023-06-14T10:38:57;24.50;1.00
8527;DHT22;4301;48.362;8.478;2023-06-14T10:41:26;24.40;1.00
8527;DHT22;4301;48.362;8.478;2023-06-14T10:46:59;24.90;1.00
8527;DHT22;4301;48.362;8.478;2023-06-14T10:49:41;25.10;1.00
8527;DHT22;4301;48.362;8.478;2023-06-14T10:52:13;24.00;1.00
8527;DHT22;4301;48.362;8.478;2023-06-14T10:55:07;23.80;1.00
8527;DHT22;4301;48.362;8.478;2023-06-14T10:57:38;24.30;1.00
8527;DHT22;4301;48.362;8.478;2023-06-14T11:00:07;24.40;1.00
8527;DHT22;4301;48.362;8.478;2023-06-14T11:02:51;24.70;1.00
8527;DHT22;4301;48.362;8.478;2023-06-14T11:05:24;24.90;1.00
8527;DHT22;4301;48.362;8.478;2023-06-14T11:08:04;24.30;1.00
8527;DHT22;4301;48.362;8.478;2023-06-14T11:10:37;24.50;1.00
8527;DHT22;4301;48.362;8.478;2023-06-14T11:13:06;25.00;1.00
8527;DHT22;4301;48.362;8.478;2023-06-14T11:15:34;24.80;1.00
8527;DHT22;4301;48.362;8.478;2023-06-14T11:18:03;24.30;1.00
8527;DHT22;4301;48.362;8.478;2023-06-14T11:20:33;24.50;1.00
8527;DHT22;4301;48.362;8.478;2023-06-14T11:23:01;24.60;1.00
8527;DHT22;4301;48.362;8.478;2023-06-14T11:25:29;25.00;1.00
8527;DHT22;4301;48.362;8.478;2023-06-14T11:27:56;24.70;1.00
8527;DHT22;4301;48.362;8.478;2023-06-14T11:30:23;25.00;1.00
8527;DHT22;4301;48.362;8.478;2023-06-14T11:32:52;25.20;1.00
8527;DHT22;4301;48.362;8.478;2023-06-14T11:35:21;24.90;1.00
8527;DHT22;4301;48.362;8.478;2023-06-14T11:37:52;24.50;1.00
8527;DHT22;4301;48.362;8.478;2023-06-14T11:40:23;24.50;1.00
8527;DHT22;4301;48.362;8.478;2023-06-14T11:42:58;24.60;1.00
8527;DHT22;4301;48.362;8.478;2023-06-14T11:45:25;24.90;1.00
8527;DHT22;4301;48.362;8.478;2023-06-14T11:47:54;25.20;1.00
8527;DHT22;4301;48.362;8.478;2023-06-14T11:50:22;24.90;1.00
8527;DHT22;4301;48.362;8.478;2023-06-14T11:52:54;24.60;1.00
8527;DHT22;4301;48.362;8.478;2023-06-14T11:55:21;24.70;1.00
8527;DHT22;4301;48.362;8.478;2023-06-14T11:57:48;24.40;1.00
8527;DHT22;4301;48.362;8.478;2023-06-14T12:00:16;24.90;1.00
8527;DHT22;4301;48.362;8.478;2023-06-14T12:02:52;23.90;1.00
8527;DHT22;4301;48.362;8.478;2023-06-14T12:05:21;24.10;1.00
8527;DHT22;4301;48.362;8.478;2023-06-14T12:07:48;24.70;1.00
8527;DHT22;4301;48.362;8.478;2023-06-14T12:10:17;24.70;1.00
8527;DHT22;4301;48.362;8.478;2023-06-14T12:12:44;25.00;1.00
8527;DHT22;4301;48.362;8.478;2023-06-14T12:15:11;25.30;1.00
8527;DHT22;4301;48.362;8.478;2023-06-14T12:17:39;25.50;1.00
8527;DHT22;4301;48.362;8.478;2023-06-14T12:20:09;25.50;1.00
8527;DHT22;4301;48.362;8.478;2023-06-14T12:22:46;25.60;1.00
8527;DHT22;4301;48.362;8.478;2023-06-14T12:25:28;25.70;1.00
8527;DHT22;4301;48.362;8.478;2023-06-14T12:27:57;25.80;1.00
8527;DHT22;4301;48.362;8.478;2023-06-14T12:30:24;25.80;1.00
8527;DHT22;4301;48.362;8.478;2023-06-14T12:32:51;24.50;1.00
8527;DHT22;4301;48.362;8.478;2023-06-14T12:35:18;24.80;1.00
8527;DHT22;4301;48.362;8.478;2023-06-14T12:37:45;25.40;1.00
8527;DHT22;4301;48.362;8.478;2023-06-14T12:40:12;25.20;1.00
8527;DHT22;4301;48.362;8.478;2023-06-14T12:42:41;25.40;1.00
8527;DHT22;4301;48.362;8.478;2023-06-14T12:45:09;25.40;1.00
8527;DHT22;4301;48.362;8.478;2023-06-14T12:47:36;25.10;1.00
8527;DHT22;4301;48.362;8.478;2023-06-14T12:50:04;25.60;1.00
8527;DHT22;4301;48.362;8.478;2023-06-14T12:52:31;25.60;1.00
8527;DHT22;4301;48.362;8.478;2023-06-14T12:55:01;25.20;1.00
8527;DHT22;4301;48.362;8.478;2023-06-14T12:57:29;25.20;1.00
8527;DHT22;4301;48.362;8.478;2023-06-14T12:59:57;25.60;1.00
8527;DHT22;4301;48.362;8.478;2023-06-14T13:02:24;25.70;1.00
8527;DHT22;4301;48.362;8.478;2023-06-14T13:04:51;25.40;1.00
8527;DHT22;4301;48.362;8.478;2023-06-14T13:07:18;25.30;1.00
8527;DHT22;4301;48.362;8.478;2023-06-14T13:09:45;25.50;1.00
8527;DHT22;4301;48.362;8.478;2023-06-14T13:12:12;25.50;1.00
8527;DHT22;4301;48.362;8.478;2023-06-14T13:14:40;25.10;1.00
8527;DHT22;4301;48.362;8.478;2023-06-14T13:17:09;25.10;1.00
8527;DHT22;4301;48.362;8.478;2023-06-14T13:19:36;25.30;1.00
